sensor_id;sensor_type;location;lat;lon;timestamp;pressure;altitude;pressure_sealevel;temperature;humidity
75895;BME280;64573;50.328;15.014;2023-04-25T00:02:04;98057.34;;;8.44;79.12
75895;BME280;64573;50.328;15.014;2023-04-25T00:04:30;98058.84;;;8.32;80.19
75895;BME280;64573;50.328;15.014;2023-04-25T00:06:58;98069.44;;;8.25;80.22
75895;BME280;64573;50.328;15.014;2023-04-25T00:09:27;98064.59;;;8.14;80.86
75895;BME280;64573;50.328;15.014;2023-04-25T00:11:52;98074.09;;;8.01;81.07
75895;BME280;64573;50.328;15.014;2023-04-25T00:14:17;98064.56;;;7.92;81.46
75895;BME280;64573;50.328;15.014;2023-04-25T00:16:43;98070.91;;;7.91;81.54
75895;BME280;64573;50.328;15.014;2023-04-25T00:19:09;98068.34;;;7.83;81.31
75895;BME280;64573;50.328;15.014;2023-04-25T00:21:35;98064.09;;;7.74;81.36
75895;BME280;64573;50.328;15.014;2023-04-25T00:24:00;98058.44;;;7.62;82.11
75895;BME280;64573;50.328;15.014;2023-04-25T00:26:27;98059.06;;;7.50;82.12
75895;BME280;64573;50.328;15.014;2023-04-25T00:28:55;98065.97;;;7.44;81.88
75895;BME280;64573;50.328;15.014;2023-04-25T00:31:21;98073.03;;;7.37;82.52
75895;BME280;64573;50.328;15.014;2023-04-25T00:33:47;98063.75;;;7.33;81.97
75895;BME280;64573;50.328;15.014;2023-04-25T00:36:12;98064.78;;;7.32;82.48
75895;BME280;64573;50.328;15.014;2023-04-25T00:38:38;98064.09;;;7.30;82.19
75895;BME280;64573;50.328;15.014;2023-04-25T00:41:08;98068.81;;;7.28;82.37
75895;BME280;64573;50.328;15.014;2023-04-25T00:43:33;98068.25;;;7.17;82.14
75895;BME280;64573;50.328;15.014;2023-04-25T00:46:00;98067.97;;;7.12;82.54
75895;BME280;64573;50.328;15.014;2023-04-25T00:48:26;98071.63;;;7.11;82.51
75895;BME280;64573;50.328;15.014;2023-04-25T00:50:53;98064.47;;;7.12;82.51
75895;BME280;64573;50.328;15.014;2023-04-25T00:53:20;98070.81;;;7.11;82.99
75895;BME280;64573;50.328;15.014;2023-04-25T00:55:46;98069.06;;;7.03;83.06
75895;BME280;64573;50.328;15.014;2023-04-25T00:58:11;98065.91;;;7.00;83.46
75895;BME280;64573;50.328;15.014;2023-04-25T01:00:37;98066.34;;;6.88;84.19
75895;BME280;64573;50.328;15.014;2023-04-25T01:03:03;98067.59;;;6.78;84.39
75895;BME280;64573;50.328;15.014;2023-04-25T01:05:29;98066.16;;;6.90;84.47
75895;BME280;64573;50.328;15.014;2023-04-25T01:07:54;98066.34;;;6.88;84.39
75895;BME280;64573;50.328;15.014;2023-04-25T01:10:19;98064.84;;;6.86;84.45
75895;BME280;64573;50.328;15.014;2023-04-25T01:12:45;98068.41;;;6.78;84.64
75895;BME280;64573;50.328;15.014;2023-04-25T01:15:10;98061.44;;;6.77;84.52
75895;BME280;64573;50.328;15.014;2023-04-25T01:17:36;98053.25;;;6.79;84.45
75895;BME280;64573;50.328;15.014;2023-04-25T01:20:05;98056.47;;;6.74;84.73
75895;BME280;64573;50.328;15.014;2023-04-25T01:22:32;98052.44;;;6.78;84.25
75895;BME280;64573;50.328;15.014;2023-04-25T01:24:58;98055.47;;;6.75;84.31
75895;BME280;64573;50.328;15.014;2023-04-25T01:27:24;98053.03;;;6.88;83.79
75895;BME280;64573;50.328;15.014;2023-04-25T01:29:51;98045.19;;;6.87;83.45
75895;BME280;64573;50.328;15.014;2023-04-25T01:32:16;98045.16;;;6.72;83.76
75895;BME280;64573;50.328;15.014;2023-04-25T01:34:42;98043.50;;;6.71;83.67
75895;BME280;64573;50.328;15.014;2023-04-25T01:37:08;98048.91;;;6.63;84.04
75895;BME280;64573;50.328;15.014;2023-04-25T01:39:34;98048.47;;;6.51;84.17
75895;BME280;64573;50.328;15.014;2023-04-25T01:42:00;98054.19;;;6.48;84.68
75895;BME280;64573;50.328;15.014;2023-04-25T01:44:25;98053.53;;;6.46;84.59
75895;BME280;64573;50.328;15.014;2023-04-25T01:46:51;98059.56;;;6.40;85.08
75895;BME280;64573;50.328;15.014;2023-04-25T01:49:16;98058.09;;;6.38;85.14
75895;BME280;64573;50.328;15.014;2023-04-25T01:51:42;98061.41;;;6.40;84.90
75895;BME280;64573;50.328;15.014;2023-04-25T01:54:08;98051.63;;;6.32;84.76
75895;BME280;64573;50.328;15.014;2023-04-25T01:56:37;98057.66;;;6.26;85.04
75895;BME280;64573;50.328;15.014;2023-04-25T01:59:04;98047.59;;;6.13;85.59
75895;BME280;64573;50.328;15.014;2023-04-25T02:01:30;98057.72;;;6.18;85.75
75895;BME280;64573;50.328;15.014;2023-04-25T02:03:56;98058.22;;;6.13;85.81
75895;BME280;64573;50.328;15.014;2023-04-25T02:06:21;98061.13;;;6.03;85.82
75895;BME280;64573;50.328;15.014;2023-04-25T02:08:46;98048.47;;;6.05;85.92
75895;BME280;64573;50.328;15.014;2023-04-25T02:11:12;98047.19;;;6.01;85.82
75895;BME280;64573;50.328;15.014;2023-04-25T02:13:37;98053.84;;;5.97;86.10
75895;BME280;64573;50.328;15.014;2023-04-25T02:16:03;98056.50;;;5.97;85.61
75895;BME280;64573;50.328;15.014;2023-04-25T02:18:28;98052.88;;;5.82;85.50
75895;BME280;64573;50.328;15.014;2023-04-25T02:20:54;98060.09;;;5.73;85.98
75895;BME280;64573;50.328;15.014;2023-04-25T02:23:19;98050.94;;;5.68;85.81
75895;BME280;64573;50.328;15.014;2023-04-25T02:25:45;98047.69;;;5.49;85.88
75895;BME280;64573;50.328;15.014;2023-04-25T02:28:10;98046.00;;;5.57;87.10
75895;BME280;64573;50.328;15.014;2023-04-25T02:30:36;98041.03;;;5.53;86.86
75895;BME280;64573;50.328;15.014;2023-04-25T02:33:01;98044.06;;;5.50;87.38
75895;BME280;64573;50.328;15.014;2023-04-25T02:35:26;98038.88;;;5.49;87.40
75895;BME280;64573;50.328;15.014;2023-04-25T02:37:52;98037.41;;;5.46;87.29
75895;BME280;64573;50.328;15.014;2023-04-25T02:40:17;98042.91;;;5.45;87.44
75895;BME280;64573;50.328;15.014;2023-04-25T02:42:43;98037.59;;;5.45;87.37
75895;BME280;64573;50.328;15.014;2023-04-25T02:45:10;98034.78;;;5.38;87.02
75895;BME280;64573;50.328;15.014;2023-04-25T02:47:36;98036.09;;;5.34;86.86
75895;BME280;64573;50.328;15.014;2023-04-25T02:50:01;98037.19;;;5.09;86.02
75895;BME280;64573;50.328;15.014;2023-04-25T02:52:27;98040.38;;;4.88;87.37
75895;BME280;64573;50.328;15.014;2023-04-25T02:54:52;98033.59;;;4.85;88.16
75895;BME280;64573;50.328;15.014;2023-04-25T02:57:17;98028.06;;;4.95;88.24
75895;BME280;64573;50.328;15.014;2023-04-25T02:59:43;98031.06;;;4.92;88.26
75895;BME280;64573;50.328;15.014;2023-04-25T03:02:09;98028.59;;;4.82;88.34
75895;BME280;64573;50.328;15.014;2023-04-25T03:04:35;98028.09;;;4.79;88.99
75895;BME280;64573;50.328;15.014;2023-04-25T03:07:00;98031.91;;;4.76;88.56
75895;BME280;64573;50.328;15.014;2023-04-25T03:09:26;98021.94;;;4.70;88.70
75895;BME280;64573;50.328;15.014;2023-04-25T03:11:51;98021.13;;;4.69;88.57
75895;BME280;64573;50.328;15.014;2023-04-25T03:14:17;98024.78;;;4.68;88.50
75895;BME280;64573;50.328;15.014;2023-04-25T03:16:42;98010.03;;;4.66;88.85
75895;BME280;64573;50.328;15.014;2023-04-25T03:19:07;98016.47;;;4.63;88.38
75895;BME280;64573;50.328;15.014;2023-04-25T03:21:35;98026.13;;;4.64;88.27
75895;BME280;64573;50.328;15.014;2023-04-25T03:24:02;98016.34;;;4.65;88.39
75895;BME280;64573;50.328;15.014;2023-04-25T03:26:28;98020.81;;;4.64;88.48
75895;BME280;64573;50.328;15.014;2023-04-25T03:28:53;98016.34;;;4.57;88.19
75895;BME280;64573;50.328;15.014;2023-04-25T03:31:19;98017.00;;;4.51;88.00
75895;BME280;64573;50.328;15.014;2023-04-25T03:33:44;98020.16;;;4.46;88.22
75895;BME280;64573;50.328;15.014;2023-04-25T03:36:09;98021.63;;;4.49;88.91
75895;BME280;64573;50.328;15.014;2023-04-25T03:38:35;98022.31;;;4.51;88.71
75895;BME280;64573;50.328;15.014;2023-04-25T03:41:01;98021.31;;;4.43;88.90
75895;BME280;64573;50.328;15.014;2023-04-25T03:43:26;98016.66;;;4.37;88.28
75895;BME280;64573;50.328;15.014;2023-04-25T03:45:52;98026.09;;;4.24;88.70
75895;BME280;64573;50.328;15.014;2023-04-25T03:48:17;98020.63;;;4.17;88.26
75895;BME280;64573;50.328;15.014;2023-04-25T03:50:42;98027.28;;;4.21;88.64
75895;BME280;64573;50.328;15.014;2023-04-25T03:53:08;98024.94;;;4.18;88.49
75895;BME280;64573;50.328;15.014;2023-04-25T03:55:33;98029.22;;;4.11;88.28
75895;BME280;64573;50.328;15.014;2023-04-25T03:57:58;98030.41;;;4.08;88.63
75895;BME280;64573;50.328;15.014;2023-04-25T04:00:24;98025.75;;;4.10;88.83
75895;BME280;64573;50.328;15.014;2023-04-25T04:02:50;98029.22;;;4.11;89.17
75895;BME280;64573;50.328;15.014;2023-04-25T04:05:15;98025.44;;;4.13;89.40
75895;BME280;64573;50.328;15.014;2023-04-25T04:07:41;98018.97;;;4.16;89.04
75895;BME280;64573;50.328;15.014;2023-04-25T04:10:09;98016.28;;;4.00;88.86
75895;BME280;64573;50.328;15.014;2023-04-25T04:12:34;98004.69;;;3.93;89.00
75895;BME280;64573;50.328;15.014;2023-04-25T04:15:04;98015.13;;;3.94;89.03
75895;BME280;64573;50.328;15.014;2023-04-25T04:17:30;98025.75;;;4.02;89.24
75895;BME280;64573;50.328;15.014;2023-04-25T04:19:55;98018.97;;;4.08;89.56
75895;BME280;64573;50.328;15.014;2023-04-25T04:22:22;98017.13;;;4.08;88.89
75895;BME280;64573;50.328;15.014;2023-04-25T04:24:47;98010.66;;;4.19;88.97
75895;BME280;64573;50.328;15.014;2023-04-25T04:27:15;98007.53;;;4.24;89.05
75895;BME280;64573;50.328;15.014;2023-04-25T04:29:42;98008.53;;;4.14;88.49
75895;BME280;64573;50.328;15.014;2023-04-25T04:32:08;98014.16;;;4.20;88.75
75895;BME280;64573;50.328;15.014;2023-04-25T04:34:34;98022.63;;;4.39;88.79
75895;BME280;64573;50.328;15.014;2023-04-25T04:37:00;98032.72;;;4.85;87.92
75895;BME280;64573;50.328;15.014;2023-04-25T04:39:25;98035.34;;;5.09;87.00
75895;BME280;64573;50.328;15.014;2023-04-25T04:41:51;98037.13;;;5.33;87.21
75895;BME280;64573;50.328;15.014;2023-04-25T04:44:16;98041.34;;;5.59;85.79
75895;BME280;64573;50.328;15.014;2023-04-25T04:46:42;98029.56;;;5.92;85.25
75895;BME280;64573;50.328;15.014;2023-04-25T04:49:11;98036.50;;;6.32;84.17
75895;BME280;64573;50.328;15.014;2023-04-25T04:51:37;98037.34;;;6.71;83.75
75895;BME280;64573;50.328;15.014;2023-04-25T04:54:02;98036.16;;;7.11;82.08
75895;BME280;64573;50.328;15.014;2023-04-25T04:56:31;98038.16;;;7.38;81.65
75895;BME280;64573;50.328;15.014;2023-04-25T04:58:57;98039.56;;;7.64;80.52
75895;BME280;64573;50.328;15.014;2023-04-25T05:01:23;98030.72;;;8.14;80.18
75895;BME280;64573;50.328;15.014;2023-04-25T05:03:49;98040.66;;;8.20;77.97
75895;BME280;64573;50.328;15.014;2023-04-25T05:06:15;98042.59;;;8.69;76.22
75895;BME280;64573;50.328;15.014;2023-04-25T05:08:41;98040.94;;;8.68;74.27
75895;BME280;64573;50.328;15.014;2023-04-25T05:11:06;98042.56;;;8.26;75.42
75895;BME280;64573;50.328;15.014;2023-04-25T05:13:31;98039.66;;;8.07;77.53
75895;BME280;64573;50.328;15.014;2023-04-25T05:15:57;98041.09;;;7.73;77.55
75895;BME280;64573;50.328;15.014;2023-04-25T05:18:22;98041.03;;;7.37;78.68
75895;BME280;64573;50.328;15.014;2023-04-25T05:20:47;98037.06;;;7.62;79.89
75895;BME280;64573;50.328;15.014;2023-04-25T05:23:13;98043.75;;;7.88;79.54
75895;BME280;64573;50.328;15.014;2023-04-25T05:25:38;98038.53;;;7.65;79.68
75895;BME280;64573;50.328;15.014;2023-04-25T05:28:03;98033.47;;;7.85;79.49
75895;BME280;64573;50.328;15.014;2023-04-25T05:30:30;98042.66;;;7.97;79.22
75895;BME280;64573;50.328;15.014;2023-04-25T05:32:55;98039.34;;;8.16;79.21
75895;BME280;64573;50.328;15.014;2023-04-25T05:35:20;98033.97;;;8.31;79.06
75895;BME280;64573;50.328;15.014;2023-04-25T05:37:46;98040.84;;;8.19;78.95
75895;BME280;64573;50.328;15.014;2023-04-25T05:40:11;98031.41;;;8.59;78.56
75895;BME280;64573;50.328;15.014;2023-04-25T05:42:37;98032.28;;;8.66;77.51
75895;BME280;64573;50.328;15.014;2023-04-25T05:45:02;98031.72;;;9.27;74.83
75895;BME280;64573;50.328;15.014;2023-04-25T05:47:28;98033.28;;;9.43;73.31
75895;BME280;64573;50.328;15.014;2023-04-25T05:49:53;98032.06;;;10.47;72.27
75895;BME280;64573;50.328;15.014;2023-04-25T05:52:18;98030.22;;;10.74;69.62
75895;BME280;64573;50.328;15.014;2023-04-25T05:54:44;98030.13;;;11.74;66.95
75895;BME280;64573;50.328;15.014;2023-04-25T05:57:21;98024.91;;;11.92;64.84
75895;BME280;64573;50.328;15.014;2023-04-25T05:59:47;98024.84;;;11.21;65.76
75895;BME280;64573;50.328;15.014;2023-04-25T06:02:12;98027.75;;;11.13;66.70
75895;BME280;64573;50.328;15.014;2023-04-25T06:04:38;98022.09;;;11.54;65.48
75895;BME280;64573;50.328;15.014;2023-04-25T06:07:03;98021.09;;;11.35;66.51
75895;BME280;64573;50.328;15.014;2023-04-25T06:09:28;98029.13;;;11.55;66.48
75895;BME280;64573;50.328;15.014;2023-04-25T06:11:53;98023.84;;;10.89;66.41
75895;BME280;64573;50.328;15.014;2023-04-25T06:14:19;98023.59;;;10.37;69.15
75895;BME280;64573;50.328;15.014;2023-04-25T06:16:44;98027.28;;;9.82;70.34
75895;BME280;64573;50.328;15.014;2023-04-25T06:19:10;98022.03;;;10.08;70.90
75895;BME280;64573;50.328;15.014;2023-04-25T06:21:35;98026.25;;;9.83;72.33
75895;BME280;64573;50.328;15.014;2023-04-25T06:24:01;98017.84;;;9.86;71.17
75895;BME280;64573;50.328;15.014;2023-04-25T06:26:26;98022.72;;;9.76;70.42
75895;BME280;64573;50.328;15.014;2023-04-25T06:28:52;98021.09;;;9.81;70.23
75895;BME280;64573;50.328;15.014;2023-04-25T06:31:17;98022.25;;;10.20;70.22
75895;BME280;64573;50.328;15.014;2023-04-25T06:33:43;98026.38;;;10.09;70.77
75895;BME280;64573;50.328;15.014;2023-04-25T06:36:08;98037.06;;;10.03;72.73
75895;BME280;64573;50.328;15.014;2023-04-25T06:38:33;98038.59;;;9.71;72.56
75895;BME280;64573;50.328;15.014;2023-04-25T06:40:59;98038.66;;;9.49;73.13
75895;BME280;64573;50.328;15.014;2023-04-25T06:43:25;98042.63;;;9.60;73.42
75895;BME280;64573;50.328;15.014;2023-04-25T06:45:50;98041.09;;;9.79;73.80
75895;BME280;64573;50.328;15.014;2023-04-25T06:48:16;98033.34;;;10.04;72.12
75895;BME280;64573;50.328;15.014;2023-04-25T06:50:41;98034.59;;;10.01;71.26
75895;BME280;64573;50.328;15.014;2023-04-25T06:53:06;98028.13;;;10.37;70.05
75895;BME280;64573;50.328;15.014;2023-04-25T06:55:33;98031.81;;;10.23;71.67
75895;BME280;64573;50.328;15.014;2023-04-25T06:57:59;98027.72;;;10.53;70.68
75895;BME280;64573;50.328;15.014;2023-04-25T07:00:25;98031.84;;;10.56;71.30
75895;BME280;64573;50.328;15.014;2023-04-25T07:02:50;98025.25;;;10.71;70.52
75895;BME280;64573;50.328;15.014;2023-04-25T07:05:16;98029.19;;;10.75;68.95
75895;BME280;64573;50.328;15.014;2023-04-25T07:07:41;98022.19;;;10.88;69.52
75895;BME280;64573;50.328;15.014;2023-04-25T07:10:07;98025.50;;;10.83;68.83
75895;BME280;64573;50.328;15.014;2023-04-25T07:12:32;98024.88;;;11.01;68.65
75895;BME280;64573;50.328;15.014;2023-04-25T07:14:57;98029.38;;;11.33;67.25
75895;BME280;64573;50.328;15.014;2023-04-25T07:17:23;98026.09;;;11.18;67.18
75895;BME280;64573;50.328;15.014;2023-04-25T07:19:48;98026.28;;;11.30;68.38
75895;BME280;64573;50.328;15.014;2023-04-25T07:22:14;98031.44;;;11.38;66.18
75895;BME280;64573;50.328;15.014;2023-04-25T07:24:39;98031.34;;;11.65;65.71
75895;BME280;64573;50.328;15.014;2023-04-25T07:27:04;98032.63;;;11.55;65.89
75895;BME280;64573;50.328;15.014;2023-04-25T07:29:30;98025.81;;;11.59;65.36
75895;BME280;64573;50.328;15.014;2023-04-25T07:31:56;98031.25;;;11.26;67.26
75895;BME280;64573;50.328;15.014;2023-04-25T07:34:22;98033.94;;;11.13;67.96
75895;BME280;64573;50.328;15.014;2023-04-25T07:36:47;98030.56;;;11.44;67.27
75895;BME280;64573;50.328;15.014;2023-04-25T07:39:13;98025.47;;;11.23;67.54
75895;BME280;64573;50.328;15.014;2023-04-25T07:41:38;98021.63;;;11.83;64.61
75895;BME280;64573;50.328;15.014;2023-04-25T07:44:03;98018.94;;;11.77;65.34
75895;BME280;64573;50.328;15.014;2023-04-25T07:46:29;98018.72;;;11.72;64.93
75895;BME280;64573;50.328;15.014;2023-04-25T07:48:54;98019.22;;;11.42;64.58
75895;BME280;64573;50.328;15.014;2023-04-25T07:51:19;98027.28;;;11.42;64.96
75895;BME280;64573;50.328;15.014;2023-04-25T07:53:47;98009.56;;;11.28;64.00
75895;BME280;64573;50.328;15.014;2023-04-25T07:56:12;98023.03;;;11.93;63.20
75895;BME280;64573;50.328;15.014;2023-04-25T07:58:37;98025.72;;;11.93;63.87
75895;BME280;64573;50.328;15.014;2023-04-25T08:01:03;98025.72;;;11.93;63.32
75895;BME280;64573;50.328;15.014;2023-04-25T08:03:28;98024.38;;;11.44;63.13
75895;BME280;64573;50.328;15.014;2023-04-25T08:05:54;98025.72;;;11.01;64.84
75895;BME280;64573;50.328;15.014;2023-04-25T08:08:19;98029.19;;;11.15;65.34
75895;BME280;64573;50.328;15.014;2023-04-25T08:10:44;98027.06;;;11.50;64.14
75895;BME280;64573;50.328;15.014;2023-04-25T08:13:10;98028.53;;;11.53;65.79
75895;BME280;64573;50.328;15.014;2023-04-25T08:15:35;98018.47;;;10.69;67.11
75895;BME280;64573;50.328;15.014;2023-04-25T08:18:00;98035.78;;;10.99;67.80
75895;BME280;64573;50.328;15.014;2023-04-25T08:20:26;98037.44;;;11.33;67.21
75895;BME280;64573;50.328;15.014;2023-04-25T08:22:51;98028.91;;;11.56;65.82
75895;BME280;64573;50.328;15.014;2023-04-25T08:25:16;98030.72;;;11.69;64.65
75895;BME280;64573;50.328;15.014;2023-04-25T08:27:42;98038.00;;;11.62;63.43
75895;BME280;64573;50.328;15.014;2023-04-25T08:30:08;98038.56;;;12.29;64.10
75895;BME280;64573;50.328;15.014;2023-04-25T08:32:34;98035.44;;;11.87;64.90
75895;BME280;64573;50.328;15.014;2023-04-25T08:34:59;98037.63;;;11.39;65.76
75895;BME280;64573;50.328;15.014;2023-04-25T08:37:24;98033.53;;;11.23;64.28
75895;BME280;64573;50.328;15.014;2023-04-25T08:39:50;98043.75;;;11.66;65.86
75895;BME280;64573;50.328;15.014;2023-04-25T08:42:17;98046.56;;;12.04;63.24
75895;BME280;64573;50.328;15.014;2023-04-25T08:44:45;98043.44;;;12.07;64.14
75895;BME280;64573;50.328;15.014;2023-04-25T08:47:10;98038.03;;;12.52;60.35
75895;BME280;64573;50.328;15.014;2023-04-25T08:49:35;98039.69;;;12.84;60.05
75895;BME280;64573;50.328;15.014;2023-04-25T08:52:03;98038.94;;;12.95;60.08
75895;BME280;64573;50.328;15.014;2023-04-25T08:54:31;98049.66;;;13.34;55.66
75895;BME280;64573;50.328;15.014;2023-04-25T08:56:57;98042.09;;;13.42;58.73
75895;BME280;64573;50.328;15.014;2023-04-25T08:59:23;98044.66;;;13.74;57.64
75895;BME280;64573;50.328;15.014;2023-04-25T09:01:50;98044.19;;;13.15;57.73
75895;BME280;64573;50.328;15.014;2023-04-25T09:04:15;98049.38;;;13.10;57.50
75895;BME280;64573;50.328;15.014;2023-04-25T09:06:40;98043.31;;;13.83;54.52
75895;BME280;64573;50.328;15.014;2023-04-25T09:09:08;98039.31;;;14.82;53.24
75895;BME280;64573;50.328;15.014;2023-04-25T09:11:36;98045.53;;;14.23;52.54
75895;BME280;64573;50.328;15.014;2023-04-25T09:14:15;98043.28;;;14.68;51.30
75895;BME280;64573;50.328;15.014;2023-04-25T09:19:27;98034.69;;;17.64;43.26
75895;BME280;64573;50.328;15.014;2023-04-25T09:21:57;98026.50;;;16.75;45.30
75895;BME280;64573;50.328;15.014;2023-04-25T09:24:37;98028.09;;;15.21;47.86
75895;BME280;64573;50.328;15.014;2023-04-25T09:27:11;98031.97;;;15.01;49.00
75895;BME280;64573;50.328;15.014;2023-04-25T09:29:38;98029.38;;;15.06;48.36
75895;BME280;64573;50.328;15.014;2023-04-25T09:32:20;98029.53;;;15.35;48.17
75895;BME280;64573;50.328;15.014;2023-04-25T09:34:48;98030.34;;;15.35;47.58
75895;BME280;64573;50.328;15.014;2023-04-25T09:37:19;98044.09;;;14.39;47.37
75895;BME280;64573;50.328;15.014;2023-04-25T09:39:47;98042.56;;;13.58;51.42
75895;BME280;64573;50.328;15.014;2023-04-25T09:42:13;98043.59;;;14.12;50.10
75895;BME280;64573;50.328;15.014;2023-04-25T09:44:46;98037.72;;;14.33;49.13
75895;BME280;64573;50.328;15.014;2023-04-25T09:47:13;98037.03;;;14.38;49.10
75895;BME280;64573;50.328;15.014;2023-04-25T09:49:40;98037.75;;;14.15;48.84
75895;BME280;64573;50.328;15.014;2023-04-25T09:52:13;98033.44;;;14.74;48.56
75895;BME280;64573;50.328;15.014;2023-04-25T09:54:39;98036.78;;;14.99;50.17
75895;BME280;64573;50.328;15.014;2023-04-25T09:57:10;98031.78;;;15.38;47.33
75895;BME280;64573;50.328;15.014;2023-04-25T09:59:39;98020.84;;;15.21;47.71
75895;BME280;64573;50.328;15.014;2023-04-25T10:02:07;98037.63;;;14.58;49.33
75895;BME280;64573;50.328;15.014;2023-04-25T10:04:34;98043.63;;;15.25;49.85
75895;BME280;64573;50.328;15.014;2023-04-25T10:06:59;98051.00;;;15.41;46.72
75895;BME280;64573;50.328;15.014;2023-04-25T10:09:28;98044.00;;;15.76;45.82
75895;BME280;64573;50.328;15.014;2023-04-25T10:11:56;98042.78;;;15.48;45.07
75895;BME280;64573;50.328;15.014;2023-04-25T10:14:23;98032.22;;;15.35;46.15
75895;BME280;64573;50.328;15.014;2023-04-25T10:16:49;98036.56;;;15.24;47.75
75895;BME280;64573;50.328;15.014;2023-04-25T10:19:19;98031.69;;;14.79;45.81
75895;BME280;64573;50.328;15.014;2023-04-25T10:21:52;98036.00;;;15.69;44.85
75895;BME280;64573;50.328;15.014;2023-04-25T10:24:19;98034.81;;;15.41;46.11
75895;BME280;64573;50.328;15.014;2023-04-25T10:26:46;98033.41;;;15.27;46.12
75895;BME280;64573;50.328;15.014;2023-04-25T10:29:12;98035.13;;;14.98;46.93
75895;BME280;64573;50.328;15.014;2023-04-25T10:31:47;98037.94;;;14.31;46.91
75895;BME280;64573;50.328;15.014;2023-04-25T10:34:13;98027.94;;;14.80;47.79
75895;BME280;64573;50.328;15.014;2023-04-25T10:36:38;98027.16;;;14.50;47.41
75895;BME280;64573;50.328;15.014;2023-04-25T10:39:06;98033.09;;;14.82;45.83
75895;BME280;64573;50.328;15.014;2023-04-25T10:41:53;98036.38;;;14.42;47.73
75895;BME280;64573;50.328;15.014;2023-04-25T10:44:19;98035.84;;;14.33;47.15
75895;BME280;64573;50.328;15.014;2023-04-25T10:46:45;98043.69;;;13.87;47.00
75895;BME280;64573;50.328;15.014;2023-04-25T10:49:28;98043.47;;;14.06;47.60
75895;BME280;64573;50.328;15.014;2023-04-25T10:54:57;98049.56;;;13.84;47.87
75895;BME280;64573;50.328;15.014;2023-04-25T10:57:37;98043.03;;;13.55;51.40
75895;BME280;64573;50.328;15.014;2023-04-25T11:00:14;98036.44;;;13.50;51.51
75895;BME280;64573;50.328;15.014;2023-04-25T11:02:44;98042.28;;;13.66;49.51
75895;BME280;64573;50.328;15.014;2023-04-25T11:05:35;98046.59;;;13.48;50.49
75895;BME280;64573;50.328;15.014;2023-04-25T11:08:02;98045.84;;;13.41;51.58
75895;BME280;64573;50.328;15.014;2023-04-25T11:10:33;98044.13;;;13.47;52.38
75895;BME280;64573;50.328;15.014;2023-04-25T11:13:00;98041.22;;;13.48;52.20
75895;BME280;64573;50.328;15.014;2023-04-25T11:15:26;98048.94;;;13.20;52.30
75895;BME280;64573;50.328;15.014;2023-04-25T11:17:52;98042.59;;;13.08;54.07
75895;BME280;64573;50.328;15.014;2023-04-25T11:20:17;98044.25;;;12.84;54.47
75895;BME280;64573;50.328;15.014;2023-04-25T11:22:45;98048.38;;;12.80;55.11
75895;BME280;64573;50.328;15.014;2023-04-25T11:25:12;98056.16;;;12.63;54.64
75895;BME280;64573;50.328;15.014;2023-04-25T11:27:52;98052.16;;;12.40;56.39
75895;BME280;64573;50.328;15.014;2023-04-25T11:30:20;98061.72;;;12.30;59.04
75895;BME280;64573;50.328;15.014;2023-04-25T11:32:46;98043.69;;;11.92;59.08
75895;BME280;64573;50.328;15.014;2023-04-25T11:35:12;98046.91;;;11.36;61.32
75895;BME280;64573;50.328;15.014;2023-04-25T11:37:41;98068.19;;;10.85;67.47
75895;BME280;64573;50.328;15.014;2023-04-25T11:40:08;98064.91;;;10.89;69.58
75895;BME280;64573;50.328;15.014;2023-04-25T11:42:36;98073.34;;;10.99;69.94
75895;BME280;64573;50.328;15.014;2023-04-25T11:45:03;98065.31;;;10.99;71.56
75895;BME280;64573;50.328;15.014;2023-04-25T11:47:33;98073.38;;;11.06;72.57
75895;BME280;64573;50.328;15.014;2023-04-25T11:49:59;98066.13;;;10.73;72.52
75895;BME280;64573;50.328;15.014;2023-04-25T11:53:08;98067.00;;;10.19;77.51
75895;BME280;64573;50.328;15.014;2023-04-25T11:55:30;98070.97;;;9.82;77.83
75895;BME280;64573;50.328;15.014;2023-04-25T11:57:55;98079.31;;;10.07;80.31
75895;BME280;64573;50.328;15.014;2023-04-25T12:00:21;98077.47;;;10.08;77.96
75895;BME280;64573;50.328;15.014;2023-04-25T12:02:51;98083.53;;;10.23;78.53
75895;BME280;64573;50.328;15.014;2023-04-25T12:05:17;98073.88;;;10.42;75.37
75895;BME280;64573;50.328;15.014;2023-04-25T12:07:43;98073.09;;;10.48;74.91
75895;BME280;64573;50.328;15.014;2023-04-25T12:10:10;98081.19;;;10.74;74.01
75895;BME280;64573;50.328;15.014;2023-04-25T12:12:37;98080.75;;;10.77;71.12
75895;BME280;64573;50.328;15.014;2023-04-25T12:15:13;98080.16;;;10.82;71.79
75895;BME280;64573;50.328;15.014;2023-04-25T12:18:01;98084.91;;;10.80;71.83
75895;BME280;64573;50.328;15.014;2023-04-25T12:20:27;98087.78;;;10.78;74.55
75895;BME280;64573;50.328;15.014;2023-04-25T12:22:53;98084.88;;;10.67;73.46
75895;BME280;64573;50.328;15.014;2023-04-25T12:25:44;98100.63;;;11.10;71.72
75895;BME280;64573;50.328;15.014;2023-04-25T12:28:15;98083.50;;;11.30;69.59
75895;BME280;64573;50.328;15.014;2023-04-25T12:33:23;98087.38;;;11.28;65.81
75895;BME280;64573;50.328;15.014;2023-04-25T12:35:49;98094.53;;;11.94;65.07
75895;BME280;64573;50.328;15.014;2023-04-25T12:38:25;98084.44;;;11.89;67.20
75895;BME280;64573;50.328;15.014;2023-04-25T12:40:52;98088.84;;;12.22;68.21
75895;BME280;64573;50.328;15.014;2023-04-25T12:43:17;98094.38;;;11.69;64.87
75895;BME280;64573;50.328;15.014;2023-04-25T12:45:44;98089.28;;;12.19;65.06
75895;BME280;64573;50.328;15.014;2023-04-25T12:48:09;98083.84;;;13.33;57.05
75895;BME280;64573;50.328;15.014;2023-04-25T12:50:35;98096.00;;;13.61;60.90
75895;BME280;64573;50.328;15.014;2023-04-25T12:53:00;98083.13;;;14.96;56.98
75895;BME280;64573;50.328;15.014;2023-04-25T12:55:25;98081.69;;;13.60;55.81
75895;BME280;64573;50.328;15.014;2023-04-25T12:57:51;98077.06;;;14.04;55.22
75895;BME280;64573;50.328;15.014;2023-04-25T13:00:17;98073.00;;;15.45;56.21
75895;BME280;64573;50.328;15.014;2023-04-25T13:02:44;98077.75;;;14.36;54.39